sensor_id;sensor_type;location;lat;lon;timestamp;pressure;altitude;pressure_sealevel;temperature;humidity
75945;BME280;64628;50.104;14.614;2023-04-03T00:00:35;99372.75;;;6.00;42.44
75945;BME280;64628;50.104;14.614;2023-04-03T00:07:47;99369.58;;;6.35;42.10
75945;BME280;64628;50.104;14.614;2023-04-03T00:10:13;99370.05;;;6.39;42.03
75945;BME280;64628;50.104;14.614;2023-04-03T00:12:37;99368.56;;;6.18;41.87
75945;BME280;64628;50.104;14.614;2023-04-03T00:15:04;99370.43;;;6.39;42.17
75945;BME280;64628;50.104;14.614;2023-04-03T00:17:32;99374.27;;;5.89;42.24
75945;BME280;64628;50.104;14.614;2023-04-03T00:19:54;99374.37;;;6.36;42.18
75945;BME280;64628;50.104;14.614;2023-04-03T00:22:18;99372.81;;;6.38;42.04
75945;BME280;64628;50.104;14.614;2023-04-03T00:24:55;99374.94;;;6.19;42.09
75945;BME280;64628;50.104;14.614;2023-04-03T00:27:17;99376.29;;;6.25;42.18
75945;BME280;64628;50.104;14.614;2023-04-03T00:29:40;99377.78;;;6.00;42.21
75945;BME280;64628;50.104;14.614;2023-04-03T00:32:08;99380.89;;;6.34;42.32
75945;BME280;64628;50.104;14.614;2023-04-03T00:34:32;99383.74;;;5.88;42.22
75945;BME280;64628;50.104;14.614;2023-04-03T00:36:56;99380.78;;;6.20;42.14
75945;BME280;64628;50.104;14.614;2023-04-03T00:39:17;99382.20;;;6.15;42.25
75945;BME280;64628;50.104;14.614;2023-04-03T00:41:43;99382.22;;;6.13;42.50
75945;BME280;64628;50.104;14.614;2023-04-03T00:44:21;99383.76;;;6.37;42.62
75945;BME280;64628;50.104;14.614;2023-04-03T00:46:33;99387.07;;;5.90;42.40
75945;BME280;64628;50.104;14.614;2023-04-03T00:49:09;99389.84;;;6.26;41.99
75945;BME280;64628;50.104;14.614;2023-04-03T00:51:30;99393.30;;;6.11;42.04
75945;BME280;64628;50.104;14.614;2023-04-03T00:53:58;99392.21;;;6.16;41.91
75945;BME280;64628;50.104;14.614;2023-04-03T00:56:28;99394.12;;;5.62;41.54
75945;BME280;64628;50.104;14.614;2023-04-03T00:58:47;99394.44;;;5.94;41.77
75945;BME280;64628;50.104;14.614;2023-04-03T01:01:10;99398.45;;;6.19;41.31
75945;BME280;64628;50.104;14.614;2023-04-03T01:03:36;99395.68;;;5.96;41.83
75945;BME280;64628;50.104;14.614;2023-04-03T01:06:02;99397.09;;;6.00;41.33
75945;BME280;64628;50.104;14.614;2023-04-03T01:08:23;99398.64;;;5.78;40.83
75945;BME280;64628;50.104;14.614;2023-04-03T01:10:49;99400.62;;;5.78;40.72
75945;BME280;64628;50.104;14.614;2023-04-03T01:13:24;99402.05;;;5.92;40.31
75945;BME280;64628;50.104;14.614;2023-04-03T01:18:15;99410.82;;;5.57;39.50
75945;BME280;64628;50.104;14.614;2023-04-03T01:20:48;99414.36;;;5.66;39.49
75945;BME280;64628;50.104;14.614;2023-04-03T01:23:02;99414.05;;;5.88;39.27
75945;BME280;64628;50.104;14.614;2023-04-03T01:25:22;99416.59;;;5.38;38.90
75945;BME280;64628;50.104;14.614;2023-04-03T01:27:53;99417.49;;;5.80;38.73
75945;BME280;64628;50.104;14.614;2023-04-03T01:30:18;99417.44;;;5.61;38.51
75945;BME280;64628;50.104;14.614;2023-04-03T01:32:40;99418.91;;;5.80;38.53
75945;BME280;64628;50.104;14.614;2023-04-03T01:35:09;99421.41;;;5.86;38.17
75945;BME280;64628;50.104;14.614;2023-04-03T01:37:46;99422.38;;;5.59;38.15
75945;BME280;64628;50.104;14.614;2023-04-03T01:40:06;99430.86;;;5.44;38.60
75945;BME280;64628;50.104;14.614;2023-04-03T01:42:25;99434.21;;;5.49;38.48
75945;BME280;64628;50.104;14.614;2023-04-03T01:44:48;99438.24;;;5.50;38.33
75945;BME280;64628;50.104;14.614;2023-04-03T01:47:13;99443.14;;;5.48;38.34
75945;BME280;64628;50.104;14.614;2023-04-03T01:49:40;99448.84;;;5.31;38.35
75945;BME280;64628;50.104;14.614;2023-04-03T01:52:07;99455.78;;;5.45;38.64
75945;BME280;64628;50.104;14.614;2023-04-03T01:54:40;99454.77;;;5.00;38.55
75945;BME280;64628;50.104;14.614;2023-04-03T01:56:56;99457.49;;;5.03;38.53
75945;BME280;64628;50.104;14.614;2023-04-03T01:59:25;99458.52;;;4.58;38.90
75945;BME280;64628;50.104;14.614;2023-04-03T02:01:53;99460.57;;;4.92;38.49
75945;BME280;64628;50.104;14.614;2023-04-03T02:04:19;99458.98;;;4.29;38.76
75945;BME280;64628;50.104;14.614;2023-04-03T02:06:39;99459.91;;;4.59;38.21
75945;BME280;64628;50.104;14.614;2023-04-03T02:09:04;99462.02;;;4.39;38.65
75945;BME280;64628;50.104;14.614;2023-04-03T02:11:28;99462.11;;;4.22;38.60
75945;BME280;64628;50.104;14.614;2023-04-03T02:13:59;99459.54;;;4.30;38.53
75945;BME280;64628;50.104;14.614;2023-04-03T02:16:25;99464.18;;;4.11;38.72
75945;BME280;64628;50.104;14.614;2023-04-03T02:18:47;99464.08;;;4.16;38.67
75945;BME280;64628;50.104;14.614;2023-04-03T02:21:11;99468.95;;;4.33;38.54
75945;BME280;64628;50.104;14.614;2023-04-03T02:23:39;99470.61;;;4.02;38.85
75945;BME280;64628;50.104;14.614;2023-04-03T02:26:13;99471.79;;;4.13;38.80
75945;BME280;64628;50.104;14.614;2023-04-03T02:33:22;99469.37;;;3.76;38.19
75945;BME280;64628;50.104;14.614;2023-04-03T02:35:53;99468.30;;;3.70;38.34
75945;BME280;64628;50.104;14.614;2023-04-03T02:38:19;99475.82;;;3.40;39.20
75945;BME280;64628;50.104;14.614;2023-04-03T02:40:41;99479.51;;;3.54;39.25
75945;BME280;64628;50.104;14.614;2023-04-03T02:43:08;99480.89;;;3.53;39.21
75945;BME280;64628;50.104;14.614;2023-04-03T02:45:28;99483.03;;;3.31;39.23
75945;BME280;64628;50.104;14.614;2023-04-03T02:47:56;99483.52;;;3.03;39.76
75945;BME280;64628;50.104;14.614;2023-04-03T02:50:27;99488.08;;;2.97;39.79
75945;BME280;64628;50.104;14.614;2023-04-03T02:52:44;99487.66;;;2.90;40.03
75945;BME280;64628;50.104;14.614;2023-04-03T02:55:16;99486.02;;;3.23;39.58
75945;BME280;64628;50.104;14.614;2023-04-03T03:00:03;99491.87;;;2.67;40.33
75945;BME280;64628;50.104;14.614;2023-04-03T03:02:31;99488.50;;;2.55;40.58
75945;BME280;64628;50.104;14.614;2023-04-03T03:04:55;99489.20;;;2.22;40.70
75945;BME280;64628;50.104;14.614;2023-04-03T03:07:19;99489.81;;;2.12;40.87
75945;BME280;64628;50.104;14.614;2023-04-03T03:09:51;99488.07;;;2.28;41.04
75945;BME280;64628;50.104;14.614;2023-04-03T03:12:10;99491.05;;;1.93;40.96
75945;BME280;64628;50.104;14.614;2023-04-03T03:14:43;99491.08;;;2.30;40.71
75945;BME280;64628;50.104;14.614;2023-04-03T03:17:05;99499.07;;;1.93;40.73
75945;BME280;64628;50.104;14.614;2023-04-03T03:19:28;99501.08;;;2.15;40.80
75945;BME280;64628;50.104;14.614;2023-04-03T03:21:54;99500.03;;;2.27;40.69
75945;BME280;64628;50.104;14.614;2023-04-03T03:24:20;99503.03;;;2.00;40.70
75945;BME280;64628;50.104;14.614;2023-04-03T03:26:45;99506.78;;;1.80;40.96
75945;BME280;64628;50.104;14.614;2023-04-03T03:29:12;99506.78;;;2.13;41.10
75945;BME280;64628;50.104;14.614;2023-04-03T03:31:46;99505.99;;;1.83;41.24
75945;BME280;64628;50.104;14.614;2023-04-03T03:34:07;99505.24;;;1.66;41.08
75945;BME280;64628;50.104;14.614;2023-04-03T03:36:28;99509.28;;;1.60;41.20
75945;BME280;64628;50.104;14.614;2023-04-03T03:38:53;99511.87;;;2.01;41.35
75945;BME280;64628;50.104;14.614;2023-04-03T03:41:21;99511.91;;;1.63;41.55
75945;BME280;64628;50.104;14.614;2023-04-03T03:43:47;99515.32;;;1.87;41.45
75945;BME280;64628;50.104;14.614;2023-04-03T03:46:10;99519.40;;;1.90;41.71
75945;BME280;64628;50.104;14.614;2023-04-03T03:48:36;99519.78;;;1.64;41.32
75945;BME280;64628;50.104;14.614;2023-04-03T03:51:03;99516.33;;;1.49;41.20
75945;BME280;64628;50.104;14.614;2023-04-03T03:53:28;99519.37;;;1.65;41.29
75945;BME280;64628;50.104;14.614;2023-04-03T03:55:54;99519.78;;;1.69;41.67
75945;BME280;64628;50.104;14.614;2023-04-03T03:58:30;99520.55;;;1.66;41.70
75945;BME280;64628;50.104;14.614;2023-04-03T04:00:47;99520.69;;;1.43;41.64
75945;BME280;64628;50.104;14.614;2023-04-03T04:03:12;99520.93;;;1.61;41.53
75945;BME280;64628;50.104;14.614;2023-04-03T04:05:37;99525.44;;;1.53;41.62
75945;BME280;64628;50.104;14.614;2023-04-03T04:08:04;99527.69;;;1.27;41.97
75945;BME280;64628;50.104;14.614;2023-04-03T04:10:29;99525.95;;;1.29;42.03
75945;BME280;64628;50.104;14.614;2023-04-03T04:13:00;99526.63;;;1.36;41.96
75945;BME280;64628;50.104;14.614;2023-04-03T04:15:19;99529.69;;;1.41;41.68
75945;BME280;64628;50.104;14.614;2023-04-03T04:17:54;99532.64;;;1.52;41.64
75945;BME280;64628;50.104;14.614;2023-04-03T04:20:15;99535.84;;;1.33;41.92
75945;BME280;64628;50.104;14.614;2023-04-03T04:22:38;99536.67;;;1.29;41.85
75945;BME280;64628;50.104;14.614;2023-04-03T04:27:28;99542.05;;;1.18;42.09
75945;BME280;64628;50.104;14.614;2023-04-03T04:29:59;99543.61;;;1.16;42.14
75945;BME280;64628;50.104;14.614;2023-04-03T04:32:20;99548.42;;;1.21;42.06
75945;BME280;64628;50.104;14.614;2023-04-03T04:34:51;99551.15;;;1.23;41.70
75945;BME280;64628;50.104;14.614;2023-04-03T04:39:58;99554.12;;;1.27;41.78
75945;BME280;64628;50.104;14.614;2023-04-03T04:42:18;99557.48;;;1.22;41.99
75945;BME280;64628;50.104;14.614;2023-04-03T04:47:04;99558.59;;;1.09;41.86
75945;BME280;64628;50.104;14.614;2023-04-03T04:49:28;99557.17;;;1.41;41.64
75945;BME280;64628;50.104;14.614;2023-04-03T04:51:48;99558.91;;;1.21;41.87
75945;BME280;64628;50.104;14.614;2023-04-03T04:54:11;99557.43;;;1.08;41.57
75945;BME280;64628;50.104;14.614;2023-04-03T04:56:37;99561.68;;;1.78;41.05
75945;BME280;64628;50.104;14.614;2023-04-03T04:59:07;99564.17;;;1.36;41.14
75945;BME280;64628;50.104;14.614;2023-04-03T05:01:28;99565.86;;;1.70;41.29
75945;BME280;64628;50.104;14.614;2023-04-03T05:03:59;99568.20;;;1.59;41.46
75945;BME280;64628;50.104;14.614;2023-04-03T05:06:19;99564.91;;;1.29;41.55
75945;BME280;64628;50.104;14.614;2023-04-03T05:08:49;99567.78;;;1.58;41.57
75945;BME280;64628;50.104;14.614;2023-04-03T05:11:11;99569.77;;;1.71;41.53
75945;BME280;64628;50.104;14.614;2023-04-03T05:13:44;99570.84;;;1.77;41.57
75945;BME280;64628;50.104;14.614;2023-04-03T05:16:04;99569.36;;;1.43;41.43
75945;BME280;64628;50.104;14.614;2023-04-03T05:18:29;99571.85;;;2.05;41.23
75945;BME280;64628;50.104;14.614;2023-04-03T05:20:55;99575.82;;;1.98;40.97
75945;BME280;64628;50.104;14.614;2023-04-03T05:23:28;99583.53;;;1.64;40.88
75945;BME280;64628;50.104;14.614;2023-04-03T05:26:00;99586.66;;;1.69;40.91
75945;BME280;64628;50.104;14.614;2023-04-03T05:28:11;99593.99;;;2.04;40.69
75945;BME280;64628;50.104;14.614;2023-04-03T05:30:36;99599.22;;;2.15;40.85
75945;BME280;64628;50.104;14.614;2023-04-03T05:33:03;99604.95;;;1.80;40.79
75945;BME280;64628;50.104;14.614;2023-04-03T05:35:36;99604.54;;;1.89;40.61
75945;BME280;64628;50.104;14.614;2023-04-03T05:37:57;99604.37;;;2.13;40.54
75945;BME280;64628;50.104;14.614;2023-04-03T05:42:45;99605.82;;;2.31;40.00
75945;BME280;64628;50.104;14.614;2023-04-03T05:45:16;99608.30;;;2.52;39.59
75945;BME280;64628;50.104;14.614;2023-04-03T05:47:37;99609.68;;;2.78;39.79
75945;BME280;64628;50.104;14.614;2023-04-03T05:50:12;99612.96;;;2.56;39.63
75945;BME280;64628;50.104;14.614;2023-04-03T05:52:28;99613.03;;;2.89;39.41
75945;BME280;64628;50.104;14.614;2023-04-03T05:54:53;99613.77;;;2.89;39.60
75945;BME280;64628;50.104;14.614;2023-04-03T05:57:18;99617.42;;;2.48;39.80
75945;BME280;64628;50.104;14.614;2023-04-03T05:59:44;99619.63;;;2.68;40.11
75945;BME280;64628;50.104;14.614;2023-04-03T06:02:11;99625.97;;;2.64;40.17
75945;BME280;64628;50.104;14.614;2023-04-03T06:04:35;99631.97;;;2.61;39.95
75945;BME280;64628;50.104;14.614;2023-04-03T06:07:00;99636.49;;;3.34;39.00
75945;BME280;64628;50.104;14.614;2023-04-03T06:09:28;99643.46;;;4.58;37.12
75945;BME280;64628;50.104;14.614;2023-04-03T06:11:52;99632.43;;;5.49;35.20
75945;BME280;64628;50.104;14.614;2023-04-03T06:14:17;99630.39;;;7.27;32.84
75945;BME280;64628;50.104;14.614;2023-04-03T06:16:49;99631.79;;;6.82;31.96
75945;BME280;64628;50.104;14.614;2023-04-03T06:19:16;99630.42;;;7.84;30.82
75945;BME280;64628;50.104;14.614;2023-04-03T06:24:01;99632.27;;;10.01;27.44
75945;BME280;64628;50.104;14.614;2023-04-03T06:31:27;99622.40;;;14.03;22.28
75945;BME280;64628;50.104;14.614;2023-04-03T06:33:49;99623.27;;;15.77;20.25
75945;BME280;64628;50.104;14.614;2023-04-03T06:36:25;99628.97;;;17.24;18.87
75945;BME280;64628;50.104;14.614;2023-04-03T06:40:59;99627.49;;;18.66;17.25
75945;BME280;64628;50.104;14.614;2023-04-03T06:43:33;99634.53;;;18.68;16.96
75945;BME280;64628;50.104;14.614;2023-04-03T06:45:56;99635.70;;;17.99;17.53
75945;BME280;64628;50.104;14.614;2023-04-03T06:48:20;99636.68;;;18.54;17.08
75945;BME280;64628;50.104;14.614;2023-04-03T06:50:50;99631.73;;;18.92;16.62
75945;BME280;64628;50.104;14.614;2023-04-03T06:55:33;99636.13;;;20.20;15.66
75945;BME280;64628;50.104;14.614;2023-04-03T06:58:09;99636.77;;;21.09;15.08
75945;BME280;64628;50.104;14.614;2023-04-03T07:00:29;99637.99;;;21.39;14.72
75945;BME280;64628;50.104;14.614;2023-04-03T07:05:29;99638.57;;;22.97;13.25
75945;BME280;64628;50.104;14.614;2023-04-03T07:10:12;99640.44;;;23.11;13.07
75945;BME280;64628;50.104;14.614;2023-04-03T07:12:33;99640.81;;;24.00;12.72
75945;BME280;64628;50.104;14.614;2023-04-03T07:14:56;99641.63;;;24.68;11.94
75945;BME280;64628;50.104;14.614;2023-04-03T07:17:30;99642.56;;;24.61;11.85
75945;BME280;64628;50.104;14.614;2023-04-03T07:34:20;99656.24;;;20.47;14.17
75945;BME280;64628;50.104;14.614;2023-04-03T07:39:13;99657.20;;;18.48;16.52
75945;BME280;64628;50.104;14.614;2023-04-03T07:46:18;99659.46;;;16.93;17.55
75945;BME280;64628;50.104;14.614;2023-04-03T07:48:43;99656.58;;;15.84;18.31
75945;BME280;64628;50.104;14.614;2023-04-03T07:51:09;99659.67;;;15.40;18.73
75945;BME280;64628;50.104;14.614;2023-04-03T07:53:34;99659.82;;;14.22;20.59
75945;BME280;64628;50.104;14.614;2023-04-03T07:56:00;99662.81;;;13.83;20.52
75945;BME280;64628;50.104;14.614;2023-04-03T07:58:26;99665.39;;;12.98;21.55
75945;BME280;64628;50.104;14.614;2023-04-03T08:00:51;99669.21;;;11.73;22.75
75945;BME280;64628;50.104;14.614;2023-04-03T08:03:16;99673.41;;;10.95;24.27
75945;BME280;64628;50.104;14.614;2023-04-03T08:05:43;99669.28;;;11.22;25.19
75945;BME280;64628;50.104;14.614;2023-04-03T08:13:08;99665.79;;;14.21;20.57
75945;BME280;64628;50.104;14.614;2023-04-03T08:20:20;99672.81;;;12.58;22.27
75945;BME280;64628;50.104;14.614;2023-04-03T08:30:25;99671.52;;;13.13;22.80
75945;BME280;64628;50.104;14.614;2023-04-03T08:32:30;99669.04;;;14.25;21.54
75945;BME280;64628;50.104;14.614;2023-04-03T08:42:24;99655.89;;;18.47;17.40
75945;BME280;64628;50.104;14.614;2023-04-03T08:44:34;99666.71;;;17.91;17.06
75945;BME280;64628;50.104;14.614;2023-04-03T08:47:02;99666.35;;;16.30;17.71
75945;BME280;64628;50.104;14.614;2023-04-03T08:49:25;99661.15;;;14.72;19.77
75945;BME280;64628;50.104;14.614;2023-04-03T08:51:46;99667.13;;;14.24;19.97
75945;BME280;64628;50.104;14.614;2023-04-03T08:54:15;99670.78;;;12.69;21.44
75945;BME280;64628;50.104;14.614;2023-04-03T08:56:35;99665.33;;;13.80;21.25
75945;BME280;64628;50.104;14.614;2023-04-03T08:59:01;99662.02;;;16.49;19.31
75945;BME280;64628;50.104;14.614;2023-04-03T09:01:27;99666.48;;;15.53;18.33
75945;BME280;64628;50.104;14.614;2023-04-03T09:03:49;99667.89;;;14.42;19.32
75945;BME280;64628;50.104;14.614;2023-04-03T09:06:19;99674.72;;;12.89;20.36
75945;BME280;64628;50.104;14.614;2023-04-03T09:08:43;99676.75;;;12.02;21.07
75945;BME280;64628;50.104;14.614;2023-04-03T09:11:12;99669.57;;;13.81;21.57
75945;BME280;64628;50.104;14.614;2023-04-03T09:13:36;99670.94;;;16.28;18.81
75945;BME280;64628;50.104;14.614;2023-04-03T09:15:57;99675.81;;;16.83;17.62
75945;BME280;64628;50.104;14.614;2023-04-03T09:18:28;99677.48;;;16.04;17.76
75945;BME280;64628;50.104;14.614;2023-04-03T09:20:55;99677.10;;;15.18;18.04
75945;BME280;64628;50.104;14.614;2023-04-03T09:23:18;99680.89;;;17.65;17.31
75945;BME280;64628;50.104;14.614;2023-04-03T09:25:39;99673.19;;;19.21;16.16
75945;BME280;64628;50.104;14.614;2023-04-03T09:28:04;99670.60;;;20.45;14.93
75945;BME280;64628;50.104;14.614;2023-04-03T09:30:29;99668.86;;;20.73;14.23
75945;BME280;64628;50.104;14.614;2023-04-03T09:32:56;99672.95;;;18.81;14.95
75945;BME280;64628;50.104;14.614;2023-04-03T09:35:23;99678.82;;;16.75;16.87
75945;BME280;64628;50.104;14.614;2023-04-03T09:37:47;99673.65;;;19.22;15.09
75945;BME280;64628;50.104;14.614;2023-04-03T09:42:40;99681.11;;;21.31;13.74
75945;BME280;64628;50.104;14.614;2023-04-03T09:45:04;99670.93;;;22.67;13.14
75945;BME280;64628;50.104;14.614;2023-04-03T09:47:27;99675.42;;;22.54;12.77
75945;BME280;64628;50.104;14.614;2023-04-03T09:52:24;99673.60;;;23.60;11.68
75945;BME280;64628;50.104;14.614;2023-04-03T09:54:41;99673.28;;;24.02;11.64
75945;BME280;64628;50.104;14.614;2023-04-03T09:57:09;99667.13;;;24.73;11.64
75945;BME280;64628;50.104;14.614;2023-04-03T09:59:32;99674.59;;;25.50;11.27
75945;BME280;64628;50.104;14.614;2023-04-03T10:01:59;99677.77;;;26.40;10.94
75945;BME280;64628;50.104;14.614;2023-04-03T10:06:55;99670.85;;;23.86;10.70
75945;BME280;64628;50.104;14.614;2023-04-03T10:11:57;99678.48;;;17.86;14.91
75945;BME280;64628;50.104;14.614;2023-04-03T10:14:22;99682.26;;;16.56;16.69
75945;BME280;64628;50.104;14.614;2023-04-03T10:16:36;99676.77;;;15.29;17.57
75945;BME280;64628;50.104;14.614;2023-04-03T10:19:06;99684.05;;;14.19;19.24
75945;BME280;64628;50.104;14.614;2023-04-03T10:21:30;99679.15;;;13.28;19.15
75945;BME280;64628;50.104;14.614;2023-04-03T10:23:53;99685.35;;;12.45;20.75
75945;BME280;64628;50.104;14.614;2023-04-03T10:26:21;99677.44;;;11.59;21.03
75945;BME280;64628;50.104;14.614;2023-04-03T10:28:44;99677.43;;;13.21;20.31
75945;BME280;64628;50.104;14.614;2023-04-03T10:31:08;99671.70;;;14.70;18.88
75945;BME280;64628;50.104;14.614;2023-04-03T10:33:37;99675.41;;;14.33;18.88
75945;BME280;64628;50.104;14.614;2023-04-03T10:38:22;99679.92;;;13.05;19.98
75945;BME280;64628;50.104;14.614;2023-04-03T10:40:57;99671.91;;;13.78;21.34
75945;BME280;64628;50.104;14.614;2023-04-03T10:43:15;99666.05;;;14.94;19.81
75945;BME280;64628;50.104;14.614;2023-04-03T10:48:14;99660.47;;;15.70;18.49
75945;BME280;64628;50.104;14.614;2023-04-03T10:50:35;99665.44;;;16.88;18.93
75945;BME280;64628;50.104;14.614;2023-04-03T10:53:00;99662.58;;;17.22;17.66
75945;BME280;64628;50.104;14.614;2023-04-03T10:57:42;99652.97;;;16.23;17.32
75945;BME280;64628;50.104;14.614;2023-04-03T11:00:18;99655.77;;;15.32;18.24
75945;BME280;64628;50.104;14.614;2023-04-03T11:07:45;99661.04;;;13.20;21.50
75945;BME280;64628;50.104;14.614;2023-04-03T11:12:33;99648.35;;;15.65;19.81
75945;BME280;64628;50.104;14.614;2023-04-03T11:19:45;99653.48;;;13.47;20.02
75945;BME280;64628;50.104;14.614;2023-04-03T11:22:00;99656.42;;;12.94;20.83
75945;BME280;64628;50.104;14.614;2023-04-03T11:24:31;99654.80;;;12.98;20.91
75945;BME280;64628;50.104;14.614;2023-04-03T11:26:54;99654.11;;;12.37;21.31
75945;BME280;64628;50.104;14.614;2023-04-03T11:29:15;99655.37;;;12.15;21.46
75945;BME280;64628;50.104;14.614;2023-04-03T11:34:11;99643.68;;;12.89;20.28
75945;BME280;64628;50.104;14.614;2023-04-03T11:38:57;99651.01;;;12.05;20.94
75945;BME280;64628;50.104;14.614;2023-04-03T11:41:25;99645.05;;;11.66;21.33
75945;BME280;64628;50.104;14.614;2023-04-03T11:46:12;99634.94;;;12.15;21.28
75945;BME280;64628;50.104;14.614;2023-04-03T11:48:45;99634.82;;;11.84;20.41
75945;BME280;64628;50.104;14.614;2023-04-03T11:53:31;99637.80;;;12.15;20.08
75945;BME280;64628;50.104;14.614;2023-04-03T11:55:55;99636.82;;;12.19;20.34
75945;BME280;64628;50.104;14.614;2023-04-03T12:00:52;99628.22;;;13.43;20.44
75945;BME280;64628;50.104;14.614;2023-04-03T12:05:31;99637.30;;;12.53;20.84
75945;BME280;64628;50.104;14.614;2023-04-03T12:10:23;99631.16;;;12.16;22.19
75945;BME280;64628;50.104;14.614;2023-04-03T12:17:40;99625.96;;;12.19;19.54
75945;BME280;64628;50.104;14.614;2023-04-03T12:22:35;99621.35;;;13.36;20.45
75945;BME280;64628;50.104;14.614;2023-04-03T12:24:55;99620.17;;;12.81;20.65
75945;BME280;64628;50.104;14.614;2023-04-03T12:30:00;99626.26;;;13.02;19.51
75945;BME280;64628;50.104;14.614;2023-04-03T12:34:45;99629.68;;;12.18;20.78
75945;BME280;64628;50.104;14.614;2023-04-03T12:41:56;99617.32;;;12.49;21.40
75945;BME280;64628;50.104;14.614;2023-04-03T12:44:30;99607.03;;;13.20;20.45
75945;BME280;64628;50.104;14.614;2023-04-03T12:46:52;99606.71;;;13.29;20.29
75945;BME280;64628;50.104;14.614;2023-04-03T12:51:38;99611.66;;;12.66;19.82
75945;BME280;64628;50.104;14.614;2023-04-03T12:54:13;99613.16;;;12.06;19.84
75945;BME280;64628;50.104;14.614;2023-04-03T12:56:32;99614.99;;;11.49;20.99
75945;BME280;64628;50.104;14.614;2023-04-03T12:59:19;99612.79;;;11.43;20.90
75945;BME280;64628;50.104;14.614;2023-04-03T13:01:16;99613.17;;;11.32;20.42
75945;BME280;64628;50.104;14.614;2023-04-03T13:03:53;99614.93;;;11.08;20.58
75945;BME280;64628;50.104;14.614;2023-04-03T13:06:13;99612.55;;;11.14;21.51
75945;BME280;64628;50.104;14.614;2023-04-03T13:08:37;99617.27;;;11.25;22.26
75945;BME280;64628;50.104;14.614;2023-04-03T13:10:59;99620.09;;;11.46;23.22
75945;BME280;64628;50.104;14.614;2023-04-03T13:13:22;99621.33;;;11.48;21.21
75945;BME280;64628;50.104;14.614;2023-04-03T13:15:57;99617.53;;;11.59;21.06
75945;BME280;64628;50.104;14.614;2023-04-03T13:18:23;99615.76;;;11.28;21.87
75945;BME280;64628;50.104;14.614;2023-04-03T13:20:38;99610.45;;;11.59;22.00
75945;BME280;64628;50.104;14.614;2023-04-03T13:23:05;99611.67;;;11.22;21.15
75945;BME280;64628;50.104;14.614;2023-04-03T13:25:31;99604.50;;;11.07;21.32
75945;BME280;64628;50.104;14.614;2023-04-03T13:28:01;99615.47;;;11.09;21.16
75945;BME280;64628;50.104;14.614;2023-04-03T13:30:35;99616.59;;;11.05;22.05
75945;BME280;64628;50.104;14.614;2023-04-03T13:32:50;99618.06;;;10.66;22.27
75945;BME280;64628;50.104;14.614;2023-04-03T13:35:31;99613.11;;;10.54;22.64
75945;BME280;64628;50.104;14.614;2023-04-03T13:37:38;99612.59;;;10.07;23.05
75945;BME280;64628;50.104;14.614;2023-04-03T13:42:37;99615.25;;;10.51;22.28
75945;BME280;64628;50.104;14.614;2023-04-03T13:45:10;99618.20;;;10.76;22.59
75945;BME280;64628;50.104;14.614;2023-04-03T13:54:44;99609.92;;;10.23;22.45
75945;BME280;64628;50.104;14.614;2023-04-03T13:57:10;99608.63;;;10.09;22.37
75945;BME280;64628;50.104;14.614;2023-04-03T13:59:32;99610.68;;;9.81;22.97
75945;BME280;64628;50.104;14.614;2023-04-03T14:04:22;99604.60;;;9.71;23.22
75945;BME280;64628;50.104;14.614;2023-04-03T14:06:44;99604.91;;;9.45;23.48
75945;BME280;64628;50.104;14.614;2023-04-03T14:09:11;99607.32;;;9.64;23.56
75945;BME280;64628;50.104;14.614;2023-04-03T14:11:43;99604.67;;;9.75;22.79
75945;BME280;64628;50.104;14.614;2023-04-03T14:14:05;99602.97;;;9.37;23.16
75945;BME280;64628;50.104;14.614;2023-04-03T14:16:31;99602.03;;;9.00;23.60
75945;BME280;64628;50.104;14.614;2023-04-03T14:19:02;99603.56;;;9.25;23.03
75945;BME280;64628;50.104;14.614;2023-04-03T14:21:20;99604.83;;;8.62;23.77
75945;BME280;64628;50.104;14.614;2023-04-03T14:23:59;99606.14;;;9.25;23.54
75945;BME280;64628;50.104;14.614;2023-04-03T14:26:11;99603.73;;;9.22;24.07
75945;BME280;64628;50.104;14.614;2023-04-03T14:28:31;99601.74;;;8.90;23.86
75945;BME280;64628;50.104;14.614;2023-04-03T14:30:56;99601.31;;;8.98;23.61
75945;BME280;64628;50.104;14.614;2023-04-03T14:33:22;99607.80;;;8.46;23.83
75945;BME280;64628;50.104;14.614;2023-04-03T14:35:48;99607.80;;;8.49;23.74
75945;BME280;64628;50.104;14.614;2023-04-03T14:38:22;99608.50;;;8.73;23.07
75945;BME280;64628;50.104;14.614;2023-04-03T14:40:38;99608.59;;;8.76;23.35
75945;BME280;64628;50.104;14.614;2023-04-03T14:43:05;99612.00;;;8.79;23.90
75945;BME280;64628;50.104;14.614;2023-04-03T14:45:30;99608.69;;;8.76;24.30
75945;BME280;64628;50.104;14.614;2023-04-03T14:47:56;99610.75;;;8.40;25.02
75945;BME280;64628;50.104;14.614;2023-04-03T14:50:23;99614.32;;;8.50;25.31
75945;BME280;64628;50.104;14.614;2023-04-03T14:52:47;99610.46;;;8.89;24.95
75945;BME280;64628;50.104;14.614;2023-04-03T14:55:14;99611.38;;;8.41;24.54
75945;BME280;64628;50.104;14.614;2023-04-03T14:57:38;99612.02;;;8.92;24.10
75945;BME280;64628;50.104;14.614;2023-04-03T15:00:06;99611.07;;;8.54;24.01
75945;BME280;64628;50.104;14.614;2023-04-03T15:02:34;99612.72;;;8.62;23.66
75945;BME280;64628;50.104;14.614;2023-04-03T15:04:53;99614.23;;;8.46;23.52
75945;BME280;64628;50.104;14.614;2023-04-03T15:07:19;99617.19;;;8.62;24.19
75945;BME280;64628;50.104;14.614;2023-04-03T15:09:45;99616.75;;;8.29;24.07
75945;BME280;64628;50.104;14.614;2023-04-03T15:12:10;99616.02;;;8.44;24.58
75945;BME280;64628;50.104;14.614;2023-04-03T15:14:36;99616.24;;;8.64;25.39
75945;BME280;64628;50.104;14.614;2023-04-03T15:17:02;99619.75;;;8.31;24.97
75945;BME280;64628;50.104;14.614;2023-04-03T15:19:27;99623.06;;;8.22;24.97
75945;BME280;64628;50.104;14.614;2023-04-03T15:21:52;99619.28;;;7.70;24.55
75945;BME280;64628;50.104;14.614;2023-04-03T15:24:18;99621.03;;;8.19;25.42
75945;BME280;64628;50.104;14.614;2023-04-03T15:26:43;99620.42;;;7.78;25.48
75945;BME280;64628;50.104;14.614;2023-04-03T15:29:09;99622.64;;;7.88;24.70